createdAt,value
2022-09-26T00:01:30.957Z,95975.16
2022-09-26T00:04:02.550Z,95974.27
2022-09-26T00:06:29.517Z,95973.52
2022-09-26T00:08:56.378Z,95971.11
2022-09-26T00:11:27.536Z,95977.05
2022-09-26T00:13:58.328Z,95974.05
2022-09-26T00:16:25.254Z,95971.26
2022-09-26T00:18:54.838Z,95971.83
2022-09-26T00:21:22.892Z,95969.70
2022-09-26T00:23:49.591Z,95968.46
2022-09-26T00:26:18.746Z,95966.81
2022-09-26T00:28:46.915Z,95966.63
2022-09-26T00:31:17.865Z,95967.42
2022-09-26T00:33:44.793Z,95967.63
2022-09-26T00:36:11.499Z,95964.33
2022-09-26T00:38:38.765Z,95964.04
2022-09-26T00:41:07.969Z,95963.14
2022-09-26T00:43:38.526Z,95966.73
2022-09-26T00:46:24.567Z,95961.58
2022-09-26T00:49:07.004Z,95963.30
2022-09-26T00:51:37.773Z,95962.20
2022-09-26T00:54:10.563Z,95964.56
2022-09-26T00:56:41.843Z,95962.67
2022-09-26T00:59:24.137Z,95960.16
2022-09-26T01:01:54.375Z,95955.15
2022-09-26T01:04:25.126Z,95955.98
2022-09-26T01:06:51.901Z,95951.42
2022-09-26T01:09:19.613Z,95949.11
2022-09-26T01:11:46.304Z,95951.95
2022-09-26T01:14:22.098Z,95955.63
2022-09-26T01:16:54.180Z,95956.69
2022-09-26T01:19:38.908Z,95957.52
2022-09-26T01:22:31.698Z,95958.59
2022-09-26T01:25:29.474Z,95959.31
2022-09-26T01:28:09.312Z,95957.48
2022-09-26T01:30:45.748Z,95956.63
2022-09-26T01:33:38.930Z,95947.23
2022-09-26T01:36:32.641Z,95938.85
2022-09-26T01:39:30.036Z,95938.32
2022-09-26T01:42:20.065Z,95942.73
2022-09-26T01:45:00.369Z,95948.23
2022-09-26T01:47:44.886Z,95944.08
2022-09-26T01:50:30.584Z,95935.56
2022-09-26T01:53:05.388Z,95930.25
2022-09-26T01:55:44.418Z,95921.48
2022-09-26T01:58:45.289Z,95915.34
2022-09-26T02:01:15.802Z,95916.36
2022-09-26T02:03:49.926Z,95914.16
2022-09-26T02:06:23.388Z,95905.20
2022-09-26T02:09:02.524Z,95898.45
2022-09-26T02:11:29.271Z,95893.44
2022-09-26T02:14:08.794Z,95893.70
2022-09-26T02:16:54.793Z,95899.80
2022-09-26T02:19:28.151Z,95915.36
2022-09-26T02:21:57.977Z,95917.92
2022-09-26T02:24:24.978Z,95908.67
2022-09-26T02:26:52.332Z,95904.23
2022-09-26T02:29:20.133Z,95895.09
2022-09-26T02:31:55.446Z,95893.67
2022-09-26T02:34:25.350Z,95900.51
2022-09-26T02:36:55.048Z,95906.55
2022-09-26T02:39:26.016Z,95905.60
2022-09-26T02:42:21.655Z,95899.77
2022-09-26T02:45:13.445Z,95898.35
2022-09-26T02:48:13.944Z,95894.50
2022-09-26T02:51:14.192Z,95889.56
2022-09-26T02:53:56.917Z,95882.73
2022-09-26T02:56:52.497Z,95880.84
2022-09-26T02:59:34.743Z,95877.95
2022-09-26T03:02:11.138Z,95874.22
2022-09-26T03:04:48.139Z,95880.05
2022-09-26T03:07:24.458Z,95876.81
2022-09-26T03:09:53.854Z,95867.10
2022-09-26T03:12:23.943Z,95868.10
2022-09-26T03:14:56.583Z,95876.55
2022-09-26T03:17:26.256Z,95878.61
2022-09-26T03:19:59.353Z,95864.52
2022-09-26T03:22:25.996Z,95851.30
2022-09-26T03:24:53.365Z,95852.13
2022-09-26T03:27:20.603Z,95855.71
2022-09-26T03:29:48.235Z,95850.41
2022-09-26T03:32:19.843Z,95845.42
2022-09-26T03:34:46.527Z,95838.91
2022-09-26T03:37:14.643Z,95834.77
2022-09-26T03:39:41.398Z,95831.73
2022-09-26T03:42:14.970Z,95832.14
2022-09-26T03:44:43.314Z,95829.05
2022-09-26T03:47:21.597Z,95816.70
2022-09-26T03:49:49.804Z,95806.15
2022-09-26T03:52:16.321Z,95797.13
2022-09-26T03:54:44.268Z,95800.48
2022-09-26T03:57:13.759Z,95801.69
2022-09-26T03:59:46.392Z,95804.10
2022-09-26T04:02:13.324Z,95804.83
2022-09-26T04:04:40.285Z,95811.45
2022-09-26T04:07:08.203Z,95814.08
2022-09-26T04:09:34.726Z,95819.30
2022-09-26T04:12:01.341Z,95815.66
2022-09-26T04:14:28.019Z,95817.92
2022-09-26T04:16:57.593Z,95819.38
2022-09-26T04:19:28.487Z,95814.13
2022-09-26T04:21:55.376Z,95805.06
2022-09-26T04:24:21.904Z,95801.61
2022-09-26T04:26:48.539Z,95794.64
2022-09-26T04:29:15.906Z,95798.69
2022-09-26T04:31:53.417Z,95796.16
2022-09-26T04:34:27.279Z,95787.55
2022-09-26T04:36:54.814Z,95787.14
2022-09-26T04:39:22.391Z,95790.35
2022-09-26T04:41:48.881Z,95789.45
2022-09-26T04:44:15.455Z,95792.13
2022-09-26T04:46:42.008Z,95787.36
2022-09-26T04:49:10.463Z,95785.21
2022-09-26T04:51:37.155Z,95791.55
2022-09-26T04:54:03.848Z,95791.50
2022-09-26T04:56:35.844Z,95781.90
2022-09-26T05:16:41.261Z,95757.61
2022-09-26T05:19:11.409Z,95760.23
2022-09-26T05:21:43.516Z,95755.48
2022-09-26T05:24:24.530Z,95748.27
2022-09-26T05:26:53.000Z,95750.32
2022-09-26T05:29:21.846Z,95745.88
2022-09-26T05:31:55.385Z,95741.23
2022-09-26T05:34:26.138Z,95742.17
2022-09-26T05:36:54.424Z,95736.09
2022-09-26T05:39:38.994Z,95741.30
2022-09-26T05:42:09.848Z,95745.67
2022-09-26T05:44:40.303Z,95747.13
2022-09-26T05:47:13.337Z,95743.11
2022-09-26T05:49:42.023Z,95737.58
2022-09-26T05:53:25.122Z,95737.89
2022-09-26T06:00:23.576Z,95746.98
2022-09-26T06:03:12.280Z,95743.59
2022-09-26T06:06:12.567Z,95746.30
2022-09-26T06:08:48.673Z,95744.63
2022-09-26T06:11:34.817Z,95739.91
2022-09-26T06:14:07.631Z,95732.61
2022-09-26T06:16:36.131Z,95733.33
2022-09-26T06:19:17.423Z,95727.13
2022-09-26T06:21:47.769Z,95729.56
2022-09-26T06:24:32.633Z,95734.17
2022-09-26T06:27:04.096Z,95737.39
2022-09-26T06:29:33.114Z,95733.38
2022-09-26T06:32:02.543Z,95730.84
2022-09-26T06:35:04.695Z,95726.64
2022-09-26T06:37:54.911Z,95739.59
2022-09-26T06:40:43.232Z,95741.95
2022-09-26T06:43:59.585Z,95749.05
2022-09-26T06:47:29.645Z,95746.57
2022-09-26T06:50:36.696Z,95744.52
2022-09-26T06:54:22.485Z,95746.12
2022-09-26T06:57:39.393Z,95746.35
2022-09-26T07:00:39.106Z,95732.62
2022-09-26T07:07:26.032Z,95723.04
2022-09-26T07:10:39.596Z,95726.52
2022-09-26T07:13:17.159Z,95721.84
2022-09-26T07:15:46.686Z,95728.58
2022-09-26T07:18:26.683Z,95725.77
2022-09-26T07:21:05.335Z,95723.41
2022-09-26T07:23:47.882Z,95723.77
2022-09-26T07:26:19.808Z,95727.21
2022-09-26T07:28:53.718Z,95724.85
2022-09-26T07:31:23.983Z,95718.73
2022-09-26T07:34:18.017Z,95716.98
2022-09-26T07:36:49.686Z,95718.58
2022-09-26T07:39:19.358Z,95714.05
2022-09-26T07:41:47.657Z,95694.88
2022-09-26T07:47:22.534Z,95693.02
2022-09-26T07:50:02.666Z,95694.16
2022-09-26T07:52:51.624Z,95688.30
2022-09-26T07:56:01.000Z,95688.08
2022-09-26T07:58:42.255Z,95685.80
2022-09-26T08:01:30.133Z,95687.73
2022-09-26T08:04:19.565Z,95689.14
2022-09-26T08:06:51.708Z,95686.06
2022-09-26T08:09:33.126Z,95686.30
2022-09-26T08:12:23.429Z,95678.79
2022-09-26T08:15:10.592Z,95669.09
2022-09-26T08:17:47.209Z,95670.48
2022-09-26T08:20:15.618Z,95674.12
2022-09-26T08:22:44.140Z,95671.04
2022-09-26T08:25:14.654Z,95665.33
2022-09-26T08:28:01.884Z,95666.76
2022-09-26T08:30:31.421Z,95662.44
2022-09-26T08:33:02.753Z,95659.08
2022-09-26T08:35:38.462Z,95654.44
2022-09-26T08:38:32.166Z,95652.22
2022-09-26T08:41:41.831Z,95642.03
2022-09-26T08:44:54.090Z,95645.67
2022-09-26T08:47:50.276Z,95643.09
2022-09-26T08:50:52.734Z,95641.94
2022-09-26T08:53:26.551Z,95648.39
2022-09-26T08:55:59.909Z,95649.43
2022-09-26T08:58:51.871Z,95644.98
2022-09-26T09:01:29.861Z,95635.36
2022-09-26T09:04:16.688Z,95632.55
2022-09-26T09:06:45.406Z,95632.02
2022-09-26T09:09:18.697Z,95626.02
2022-09-26T09:12:23.686Z,95619.82
2022-09-26T09:15:38.011Z,95621.40
2022-09-26T09:18:45.131Z,95629.16
2022-09-26T09:21:40.888Z,95620.46
2022-09-26T09:24:46.542Z,95623.36
2022-09-26T09:30:43.644Z,95623.92
2022-09-26T09:33:32.973Z,95611.29
2022-09-26T09:36:25.017Z,95609.68
2022-09-26T09:39:26.961Z,95612.42
2022-09-26T09:42:12.335Z,95617.38
2022-09-26T09:45:03.635Z,95612.32
2022-09-26T09:47:39.483Z,95612.45
2022-09-26T09:50:20.067Z,95609.66
2022-09-26T09:53:14.868Z,95610.39
2022-09-26T09:56:31.648Z,95621.61
2022-09-26T09:59:24.043Z,95617.12
2022-09-26T10:02:30.067Z,95617.69
2022-09-26T10:05:29.861Z,95609.15
2022-09-26T10:08:04.052Z,95596.16
2022-09-26T10:11:20.483Z,95604.02
2022-09-26T10:14:07.983Z,95615.98
2022-09-26T10:17:18.221Z,95616.48
2022-09-26T10:19:56.062Z,95622.50
2022-09-26T10:22:37.809Z,95631.48
2022-09-26T10:25:23.870Z,95631.36
2022-09-26T10:27:55.286Z,95635.23
2022-09-26T10:30:32.211Z,95641.41
2022-09-26T10:33:25.439Z,95638.74
2022-09-26T10:36:20.967Z,95639.98
2022-09-26T10:39:20.800Z,95640.08
2022-09-26T10:42:04.706Z,95647.22
2022-09-26T10:45:25.615Z,95663.69
2022-09-26T10:48:16.537Z,95671.98
2022-09-26T10:51:08.361Z,95672.56
2022-09-26T10:54:05.340Z,95681.48
2022-09-26T10:56:50.644Z,95688.46
2022-09-26T11:02:39.060Z,95675.58
2022-09-26T11:05:25.158Z,95672.86
2022-09-26T11:08:47.597Z,95677.17
2022-09-26T11:11:50.764Z,95686.61
2022-09-26T11:14:30.618Z,95681.42
2022-09-26T11:17:19.561Z,95680.75
2022-09-26T11:20:21.358Z,95675.86
2022-09-26T11:30:11.728Z,95679.20
2022-09-26T11:33:36.737Z,95681.16
2022-09-26T11:51:09.772Z,95692.48
2022-09-26T11:54:23.318Z,95674.06
2022-09-26T11:57:38.265Z,95667.16
2022-09-26T12:00:29.668Z,95655.41
2022-09-26T12:03:30.185Z,95646.20
2022-09-26T12:06:42.511Z,95647.23
2022-09-26T12:09:25.256Z,95641.95
2022-09-26T12:12:20.856Z,95647.95
2022-09-26T12:15:19.597Z,95659.34
2022-09-26T12:18:20.443Z,95654.55
2022-09-26T12:21:08.647Z,95645.42
2022-09-26T12:23:48.461Z,95651.59
2022-09-26T12:26:37.543Z,95645.38
2022-09-26T12:29:39.481Z,95646.98
2022-09-26T12:33:05.324Z,95643.55
2022-09-26T12:36:11.136Z,95643.47
2022-09-26T12:39:13.309Z,95644.14
2022-09-26T12:42:35.837Z,95632.35
2022-09-26T12:50:30.367Z,95606.02
2022-09-26T13:14:54.494Z,95577.44
2022-09-26T13:18:15.241Z,95578.35
2022-09-26T13:21:32.708Z,95584.00
2022-09-26T13:27:45.958Z,95598.71
2022-09-26T13:30:38.216Z,95596.86
2022-09-26T13:33:26.090Z,95592.56
2022-09-26T13:36:06.779Z,95589.42
2022-09-26T13:39:12.079Z,95584.91
2022-09-26T13:42:27.737Z,95583.09
2022-09-26T13:49:08.459Z,95571.84
2022-09-26T13:52:56.288Z,95568.01
2022-09-26T13:56:22.378Z,95558.27
2022-09-26T14:00:02.008Z,95549.54
2022-09-26T14:03:34.735Z,95547.57
2022-09-26T14:11:44.840Z,95542.03
2022-09-26T14:15:10.530Z,95537.87
2022-09-26T14:17:51.442Z,95547.27
2022-09-26T14:20:27.415Z,95547.59
2022-09-26T14:23:18.321Z,95548.70
2022-09-26T14:26:03.476Z,95547.74
2022-09-26T14:28:35.990Z,95541.60
2022-09-26T14:31:30.870Z,95536.77
2022-09-26T14:34:40.216Z,95535.86
2022-09-26T14:37:26.517Z,95530.10
2022-09-26T14:40:20.853Z,95529.80
2022-09-26T14:43:19.799Z,95524.35
2022-09-26T14:46:01.851Z,95522.09
2022-09-26T14:49:29.246Z,95516.23
2022-09-26T14:52:25.842Z,95518.59
2022-09-26T14:55:18.792Z,95518.01
2022-09-26T14:57:48.930Z,95510.98
2022-09-26T15:00:40.839Z,95507.39
2022-09-26T15:03:30.008Z,95508.37
2022-09-26T15:06:43.891Z,95504.01
2022-09-26T15:09:45.860Z,95504.09
2022-09-26T15:13:02.641Z,95502.60
2022-09-26T15:16:18.847Z,95510.85
2022-09-26T15:19:35.929Z,95507.75
2022-09-26T15:23:01.430Z,95508.66
2022-09-26T15:25:59.835Z,95505.76
2022-09-26T15:29:13.749Z,95505.23
2022-09-26T15:40:36.259Z,95510.29
2022-09-26T15:43:37.251Z,95501.27
2022-09-26T15:46:39.966Z,95494.36
2022-09-26T15:50:05.875Z,95493.34
2022-09-26T15:53:07.185Z,95490.77
2022-09-26T15:56:37.751Z,95493.18
2022-09-26T16:00:06.854Z,95502.16
2022-09-26T16:03:06.874Z,95518.14
2022-09-26T16:05:42.414Z,95514.91
2022-09-26T16:09:07.796Z,95512.98
2022-09-26T16:12:15.798Z,95515.09
2022-09-26T16:15:20.195Z,95518.51
2022-09-26T16:18:14.209Z,95522.91
2022-09-26T16:21:04.044Z,95534.70
2022-09-26T16:24:02.801Z,95534.50
2022-09-26T16:26:47.421Z,95532.46
2022-09-26T16:29:51.374Z,95527.55
2022-09-26T16:32:54.126Z,95521.94
2022-09-26T16:35:46.581Z,95520.38
2022-09-26T16:38:57.988Z,95520.65
2022-09-26T16:42:01.232Z,95523.81
2022-09-26T16:44:36.203Z,95521.60
2022-09-26T16:47:29.073Z,95522.30
2022-09-26T16:49:57.117Z,95523.73
2022-09-26T16:52:32.757Z,95528.11
2022-09-26T16:55:02.274Z,95532.36
2022-09-26T16:57:35.179Z,95540.14
2022-09-26T17:00:33.635Z,95531.23
2022-09-26T17:03:02.372Z,95519.11
2022-09-26T17:05:30.496Z,95508.14
2022-09-26T17:07:58.637Z,95509.29
2022-09-26T17:10:26.786Z,95507.06
2022-09-26T17:12:54.638Z,95505.73
2022-09-26T17:15:28.937Z,95502.94
2022-09-26T17:17:58.243Z,95504.13
2022-09-26T17:20:28.412Z,95505.95
2022-09-26T17:22:56.613Z,95508.52
2022-09-26T17:25:57.833Z,95505.30
2022-09-26T17:28:31.749Z,95501.13
2022-09-26T17:31:06.216Z,95499.38
2022-09-26T17:33:42.087Z,95509.14
2022-09-26T17:36:19.652Z,95504.59
2022-09-26T17:38:47.824Z,95496.61
2022-09-26T17:41:15.913Z,95494.08
2022-09-26T17:43:45.123Z,95500.05
2022-09-26T17:46:16.136Z,95499.29
2022-09-26T17:48:45.053Z,95497.15
2022-09-26T17:51:14.022Z,95496.70
2022-09-26T17:53:50.627Z,95494.16
2022-09-26T17:56:20.208Z,95500.81
2022-09-26T17:58:49.307Z,95490.06
2022-09-26T18:01:28.090Z,95492.71
2022-09-26T18:04:01.091Z,95499.88
2022-09-26T18:06:32.710Z,95501.41
2022-09-26T18:09:07.647Z,95494.34
2022-09-26T18:11:37.257Z,95490.29
2022-09-26T18:14:06.759Z,95484.17
2022-09-26T18:16:35.272Z,95479.11
2022-09-26T18:19:07.459Z,95476.06
2022-09-26T18:21:36.649Z,95474.86
2022-09-26T18:24:09.256Z,95465.86
2022-09-26T18:26:47.451Z,95458.85
2022-09-26T18:29:22.927Z,95461.34
2022-09-26T18:31:52.303Z,95451.34
2022-09-26T18:34:40.857Z,95440.84
2022-09-26T18:37:09.139Z,95434.45
2022-09-26T18:39:58.969Z,95437.77
2022-09-26T18:42:58.840Z,95442.97
2022-09-26T18:45:48.049Z,95436.79
2022-09-26T18:49:02.813Z,95433.17
2022-09-26T18:51:58.803Z,95432.48
2022-09-26T18:55:17.902Z,95434.08
2022-09-26T19:01:41.521Z,95437.19
2022-09-26T19:04:36.875Z,95434.38
2022-09-26T19:07:30.751Z,95427.55
2022-09-26T19:10:29.798Z,95428.22
2022-09-26T19:13:43.770Z,95438.65
